Motion Scan — PCNB — position and weather

sailwx.info

Track history (hours):
 
Tides and Currents Weather Stations Pressure Air Temp Water Temp Dewpoint Dewpoint Depression Visibility Wind Speed Wind Dir Waves Ship Positions

Motion Scan

Last reported at 2016-Sep-03 13:33 UTC. Time now 2016-Sep-30 01:31 UTC.
Position N 10°47' W 061°34'.
Warning: this ship's position is 26 days out of date.

Length 116 m; draft 5.8 m.

Type: Cargo ship. MMSI: 245523000.

Date/timePositionNaut miles runAvg speedWind from/ knotsBaromVisibWave heightAir tempDewpointWater temp
2016-Sep-03 13:33N 10°47' W 061°34'1313.2
2016-Sep-03 12:33N 10°42' W 061°47'9 8.5
2016-Sep-03 11:33N 10°40' W 061°38'1 0.7
2016-Sep-03 10:33N 10°41' W 061°38'0 0.0
2016-Sep-03 09:33N 10°41' W 061°38'0 0.0
2016-Sep-03 08:33N 10°41' W 061°38'0 0.0
2016-Sep-03 07:30N 10°41' W 061°38'0 0.0
2016-Sep-03 06:33N 10°41' W 061°38'0 0.0
2016-Sep-03 05:33N 10°41' W 061°38'0 0.0
2016-Sep-03 04:33N 10°41' W 061°38'0 0.0
2016-Sep-03 03:33N 10°41' W 061°38'0 0.0
2016-Sep-03 02:33N 10°41' W 061°38'0 0.0
2016-Sep-03 01:33N 10°41' W 061°38'0 0.0
2016-Sep-03 00:33N 10°41' W 061°38'0 0.0
2016-Sep-02 23:33N 10°41' W 061°38'0 0.0
2016-Sep-02 22:33N 10°41' W 061°38'0 0.0
2016-Sep-02 21:33N 10°41' W 061°38'0 0.0
2016-Sep-02 20:33N 10°41' W 061°38'0 0.0
2016-Sep-02 19:27N 10°41' W 061°38'0 0.0
2016-Sep-02 18:33N 10°41' W 061°38'0 0.0
2016-Sep-02 17:33N 10°41' W 061°38'0 0.0
2016-Sep-02 16:33N 10°41' W 061°38'0 0.0
2016-Sep-02 15:33N 10°41' W 061°38'0 0.0
2016-Sep-02 14:33N 10°41' W 061°38'0 0.0
2016-Sep-02 13:33N 10°41' W 061°38'0 0.0
2016-Sep-02 12:33N 10°41' W 061°38'2 1.6
2016-Sep-02 11:33N 10°39' W 061°39'1010.3
2016-Sep-02 10:33N 10°29' W 061°36'8 7.7
2016-Sep-02 09:33N 10°24' W 061°30'0 0.1
2016-Sep-02 08:31N 10°24' W 061°30'0 0.0
2016-Sep-02 07:31N 10°24' W 061°30'0 0.0
2016-Sep-02 06:31N 10°24' W 061°30'0 0.0
2016-Sep-02 04:31N 10°24' W 061°30'0 0.0
2016-Sep-02 03:31N 10°24' W 061°30'0 0.0
2016-Sep-02 02:31N 10°24' W 061°30'0 0.0
2016-Sep-02 01:31N 10°24' W 061°30'0 0.0
2016-Sep-02 00:31N 10°24' W 061°30'0 0.0
2016-Sep-01 23:25N 10°24' W 061°30'0 0.0
2016-Sep-01 22:31N 10°24' W 061°30'0 0.0
2016-Sep-01 21:31N 10°24' W 061°30'0 0.0
2016-Sep-01 16:28N 10°24' W 061°30'0 0.0
2016-Sep-01 15:34N 10°24' W 061°30'0 0.0
2016-Sep-01 14:34N 10°24' W 061°30'0 0.0
2016-Sep-01 13:31N 10°24' W 061°30'0 0.0
2016-Sep-01 12:34N 10°24' W 061°30'0 0.0
2016-Sep-01 11:34N 10°24' W 061°30'3 3.4
2016-Sep-01 10:34N 10°24' W 061°33'0 0.1
2016-Sep-01 09:32N 10°24' W 061°33'0 0.0
2016-Sep-01 08:32N 10°24' W 061°33'0 0.0
2016-Sep-01 07:32N 10°24' W 061°33'0 0.0
2016-Sep-01 06:32N 10°24' W 061°33'0 0.0
2016-Sep-01 05:32N 10°24' W 061°33'0 0.0
2016-Sep-01 04:29N 10°24' W 061°33'0 0.0
2016-Sep-01 03:32N 10°24' W 061°33'0 0.0
2016-Sep-01 02:32N 10°24' W 061°33'0 0.1
2016-Sep-01 01:32N 10°24' W 061°33'0 0.0
2016-Sep-01 00:32N 10°24' W 061°33'0 0.0
2016-Aug-31 23:32N 10°24' W 061°33'0 0.0
2016-Aug-31 22:32N 10°24' W 061°33'0 0.0
2016-Aug-31 21:32N 10°24' W 061°33'0 0.0
2016-Aug-31 20:32N 10°24' W 061°33'0 0.0
2016-Aug-31 19:32N 10°24' W 061°33'0 0.0
2016-Aug-31 18:32N 10°24' W 061°33'0 0.0
2016-Aug-31 17:32N 10°24' W 061°33'0 0.0
2016-Aug-31 16:32N 10°24' W 061°33'0 0.0
2016-Aug-31 15:32N 10°24' W 061°33'0 0.0
2016-Aug-31 14:32N 10°24' W 061°33'0 0.0
2016-Aug-31 13:32N 10°24' W 061°33'0 0.0
2016-Aug-31 12:32N 10°24' W 061°33'0 0.0
2016-Aug-31 11:32N 10°24' W 061°33'0 0.0
2016-Aug-31 10:32N 10°24' W 061°33'0 0.1
2016-Aug-31 09:32N 10°24' W 061°33'0 0.1
2016-Aug-31 08:32N 10°24' W 061°33'0 0.0
2016-Aug-31 07:32N 10°24' W 061°33'0 0.0
2016-Aug-31 06:32N 10°24' W 061°33'0 0.0
2016-Aug-31 05:32N 10°24' W 061°33'0 0.0
2016-Aug-31 04:29N 10°24' W 061°33'0 0.0
2016-Aug-31 03:32N 10°24' W 061°33'0 0.0
2016-Aug-31 02:29N 10°24' W 061°33'0 0.0
2016-Aug-31 01:32N 10°24' W 061°33'0 0.0
2016-Aug-31 00:32N 10°24' W 061°33'0 0.0
2016-Aug-30 23:32N 10°24' W 061°33'0 0.0
2016-Aug-30 22:32N 10°24' W 061°33'0 0.1
2016-Aug-30 21:32N 10°24' W 061°33'7 7.5
2016-Aug-30 20:33N 10°27' W 061°40'1110.5
2016-Aug-30 19:34N 10°35' W 061°47'1211.6
2016-Aug-30 18:33N 10°46' W 061°49'1212.4
2016-Aug-30 17:33N 10°53' W 062°00'  
Track history (hours):
 
Tides and Currents Weather Stations Pressure Air Temp Water Temp Dewpoint Dewpoint Depression Visibility Wind Speed Wind Dir Waves Ship Positions

Motion Scan

Last reported at 2016-Sep-03 13:33 UTC. Time now 2016-Sep-30 01:31 UTC.
Position N 10°47' W 061°34'.
Warning: this ship's position is 26 days out of date.

Length 116 m; draft 5.8 m.

Type: Cargo ship. MMSI: 245523000.

Date/timePositionNaut miles runAvg speedWind from/ knotsBaromVisibWave heightAir tempDewpointWater temp
2016-Sep-03 13:33N 10°47' W 061°34'1313.2
2016-Sep-03 12:33N 10°42' W 061°47'9 8.5
2016-Sep-03 11:33N 10°40' W 061°38'1 0.7
2016-Sep-03 10:33N 10°41' W 061°38'0 0.0
2016-Sep-03 09:33N 10°41' W 061°38'0 0.0
2016-Sep-03 08:33N 10°41' W 061°38'0 0.0
2016-Sep-03 07:30N 10°41' W 061°38'0 0.0
2016-Sep-03 06:33N 10°41' W 061°38'0 0.0
2016-Sep-03 05:33N 10°41' W 061°38'0 0.0
2016-Sep-03 04:33N 10°41' W 061°38'0 0.0
2016-Sep-03 03:33N 10°41' W 061°38'0 0.0
2016-Sep-03 02:33N 10°41' W 061°38'0 0.0
2016-Sep-03 01:33N 10°41' W 061°38'0 0.0
2016-Sep-03 00:33N 10°41' W 061°38'0 0.0
2016-Sep-02 23:33N 10°41' W 061°38'0 0.0
2016-Sep-02 22:33N 10°41' W 061°38'0 0.0
2016-Sep-02 21:33N 10°41' W 061°38'0 0.0
2016-Sep-02 20:33N 10°41' W 061°38'0 0.0
2016-Sep-02 19:27N 10°41' W 061°38'0 0.0
2016-Sep-02 18:33N 10°41' W 061°38'0 0.0
2016-Sep-02 17:33N 10°41' W 061°38'0 0.0
2016-Sep-02 16:33N 10°41' W 061°38'0 0.0
2016-Sep-02 15:33N 10°41' W 061°38'0 0.0
2016-Sep-02 14:33N 10°41' W 061°38'0 0.0
2016-Sep-02 13:33N 10°41' W 061°38'0 0.0
2016-Sep-02 12:33N 10°41' W 061°38'2 1.6
2016-Sep-02 11:33N 10°39' W 061°39'1010.3
2016-Sep-02 10:33N 10°29' W 061°36'8 7.7
2016-Sep-02 09:33N 10°24' W 061°30'0 0.1
2016-Sep-02 08:31N 10°24' W 061°30'0 0.0
2016-Sep-02 07:31N 10°24' W 061°30'0 0.0
2016-Sep-02 06:31N 10°24' W 061°30'0 0.0
2016-Sep-02 04:31N 10°24' W 061°30'0 0.0
2016-Sep-02 03:31N 10°24' W 061°30'0 0.0
2016-Sep-02 02:31N 10°24' W 061°30'0 0.0
2016-Sep-02 01:31N 10°24' W 061°30'0 0.0
2016-Sep-02 00:31N 10°24' W 061°30'0 0.0
2016-Sep-01 23:25N 10°24' W 061°30'0 0.0
2016-Sep-01 22:31N 10°24' W 061°30'0 0.0
2016-Sep-01 21:31N 10°24' W 061°30'0 0.0
2016-Sep-01 16:28N 10°24' W 061°30'0 0.0
2016-Sep-01 15:34N 10°24' W 061°30'0 0.0
2016-Sep-01 14:34N 10°24' W 061°30'0 0.0
2016-Sep-01 13:31N 10°24' W 061°30'0 0.0
2016-Sep-01 12:34N 10°24' W 061°30'0 0.0
2016-Sep-01 11:34N 10°24' W 061°30'3 3.4
2016-Sep-01 10:34N 10°24' W 061°33'0 0.1
2016-Sep-01 09:32N 10°24' W 061°33'0 0.0
2016-Sep-01 08:32N 10°24' W 061°33'0 0.0
2016-Sep-01 07:32N 10°24' W 061°33'0 0.0
2016-Sep-01 06:32N 10°24' W 061°33'0 0.0
2016-Sep-01 05:32N 10°24' W 061°33'0 0.0
2016-Sep-01 04:29N 10°24' W 061°33'0 0.0
2016-Sep-01 03:32N 10°24' W 061°33'0 0.0
2016-Sep-01 02:32N 10°24' W 061°33'0 0.1
2016-Sep-01 01:32N 10°24' W 061°33'0 0.0
2016-Sep-01 00:32N 10°24' W 061°33'0 0.0
2016-Aug-31 23:32N 10°24' W 061°33'0 0.0
2016-Aug-31 22:32N 10°24' W 061°33'0 0.0
2016-Aug-31 21:32N 10°24' W 061°33'0 0.0
2016-Aug-31 20:32N 10°24' W 061°33'0 0.0
2016-Aug-31 19:32N 10°24' W 061°33'0 0.0
2016-Aug-31 18:32N 10°24' W 061°33'0 0.0
2016-Aug-31 17:32N 10°24' W 061°33'0 0.0
2016-Aug-31 16:32N 10°24' W 061°33'0 0.0
2016-Aug-31 15:32N 10°24' W 061°33'0 0.0
2016-Aug-31 14:32N 10°24' W 061°33'0 0.0
2016-Aug-31 13:32N 10°24' W 061°33'0 0.0
2016-Aug-31 12:32N 10°24' W 061°33'0 0.0
2016-Aug-31 11:32N 10°24' W 061°33'0 0.0
2016-Aug-31 10:32N 10°24' W 061°33'0 0.1
2016-Aug-31 09:32N 10°24' W 061°33'0 0.1
2016-Aug-31 08:32N 10°24' W 061°33'0 0.0
2016-Aug-31 07:32N 10°24' W 061°33'0 0.0
2016-Aug-31 06:32N 10°24' W 061°33'0 0.0
2016-Aug-31 05:32N 10°24' W 061°33'0 0.0
2016-Aug-31 04:29N 10°24' W 061°33'0 0.0
2016-Aug-31 03:32N 10°24' W 061°33'0 0.0
2016-Aug-31 02:29N 10°24' W 061°33'0 0.0
2016-Aug-31 01:32N 10°24' W 061°33'0 0.0
2016-Aug-31 00:32N 10°24' W 061°33'0 0.0
2016-Aug-30 23:32N 10°24' W 061°33'0 0.0
2016-Aug-30 22:32N 10°24' W 061°33'0 0.1
2016-Aug-30 21:32N 10°24' W 061°33'7 7.5
2016-Aug-30 20:33N 10°27' W 061°40'1110.5
2016-Aug-30 19:34N 10°35' W 061°47'1211.6
2016-Aug-30 18:33N 10°46' W 061°49'1212.4
2016-Aug-30 17:33N 10°53' W 062°00'  

Dump ship's entire track history